TEF395 EDDB-LOWI
Flight info
| Callsign | TEF395 |
|---|---|
| Flight time | 0h 57m |
| Altitude | 28000 |
| Route | LUROS3Z LUROS Y211 BEBKU Z36 MAREM DCT RUDAP P31 DOSEL/N0458F290 M736 TULSI TULSI3A |
| Aircraft | A320/M-SDE3FGHIRWY/LB1 |
Departure
| Time | 2026-05-05 22:05 |
|---|---|
| Airport | Berlin Brandenburg Airport (EDDB) |
Arrival
| Time | 2026-05-05 23:02 |
|---|---|
| Airport | Innsbruck Airport (LOWI) |
| Time | Latitude | Longitude | Altitude | Speed | Heading |
|---|---|---|---|---|---|
| 2026-05-05 21:28 | 52.36211 | 13.50704 | 155 ft | 0 kts | 69° |
| 2026-05-05 21:52 | 52.36205 | 13.50679 | 154 ft | 4 kts | 69° |
| 2026-05-05 21:52 | 52.36195 | 13.50638 | 154 ft | 4 kts | 69° |
| 2026-05-05 21:53 | 52.36185 | 13.50597 | 154 ft | 4 kts | 69° |
| 2026-05-05 21:53 | 52.36177 | 13.50564 | 154 ft | 4 kts | 70° |
| 2026-05-05 21:53 | 52.36172 | 13.50522 | 154 ft | 4 kts | 96° |
| 2026-05-05 21:53 | 52.36181 | 13.50487 | 154 ft | 4 kts | 149° |
| 2026-05-05 21:54 | 52.36186 | 13.50482 | 154 ft | 0 kts | 159° |
| 2026-05-05 21:57 | 52.36185 | 13.50483 | 154 ft | 2 kts | 158° |
| 2026-05-05 21:58 | 52.36154 | 13.50503 | 154 ft | 8 kts | 158° |
| 2026-05-05 21:58 | 52.36088 | 13.50544 | 154 ft | 12 kts | 159° |
| 2026-05-05 21:58 | 52.35995 | 13.50603 | 154 ft | 15 kts | 159° |
| 2026-05-05 21:58 | 52.35894 | 13.50646 | 154 ft | 15 kts | 186° |
| 2026-05-05 21:59 | 52.35805 | 13.50637 | 154 ft | 11 kts | 182° |
| 2026-05-05 21:59 | 52.35755 | 13.50545 | 154 ft | 14 kts | 248° |
| 2026-05-05 21:59 | 52.35713 | 13.50372 | 154 ft | 19 kts | 249° |
| 2026-05-05 21:59 | 52.35662 | 13.50154 | 154 ft | 23 kts | 249° |
| 2026-05-05 22:00 | 52.35598 | 13.49886 | 154 ft | 27 kts | 249° |
| 2026-05-05 22:00 | 52.35527 | 13.49589 | 154 ft | 29 kts | 249° |
| 2026-05-05 22:00 | 52.35454 | 13.49281 | 154 ft | 29 kts | 249° |
| 2026-05-05 22:00 | 52.35389 | 13.49008 | 154 ft | 26 kts | 249° |
| 2026-05-05 22:01 | 52.35323 | 13.48729 | 154 ft | 26 kts | 249° |
| 2026-05-05 22:01 | 52.35272 | 13.48519 | 154 ft | 15 kts | 240° |
| 2026-05-05 22:01 | 52.35186 | 13.48499 | 154 ft | 13 kts | 159° |
| 2026-05-05 22:01 | 52.35128 | 13.48538 | 154 ft | 3 kts | 150° |
| 2026-05-05 22:02 | 52.35126 | 13.48540 | 154 ft | 0 kts | 148° |
| 2026-05-05 22:02 | 52.35124 | 13.48542 | 154 ft | 2 kts | 146° |
| 2026-05-05 22:02 | 52.35105 | 13.48588 | 154 ft | 8 kts | 109° |
| 2026-05-05 22:02 | 52.35092 | 13.48715 | 154 ft | 14 kts | 98° |
| 2026-05-05 22:03 | 52.35073 | 13.48901 | 154 ft | 17 kts | 100° |
| 2026-05-05 22:03 | 52.35063 | 13.49023 | 154 ft | 7 kts | 85° |
| 2026-05-05 22:03 | 52.35074 | 13.49080 | 154 ft | 0 kts | 69° |
| 2026-05-05 22:04 | 52.35096 | 13.49172 | 154 ft | 36 kts | 69° |
| 2026-05-05 22:04 | 52.35280 | 13.49948 | 155 ft | 107 kts | 69° |
| 2026-05-05 22:04 | 52.35621 | 13.51379 | 158 ft | 161 kts | 68° |
| 2026-05-05 22:04 | 52.35993 | 13.53146 | 683 ft | 164 kts | 77° |
| 2026-05-05 22:05 | 52.36135 | 13.54998 | 1382 ft | 164 kts | 83° |
| 2026-05-05 22:05 | 52.36246 | 13.56853 | 2063 ft | 163 kts | 83° |
| 2026-05-05 22:05 | 52.36360 | 13.58733 | 2538 ft | 174 kts | 83° |
| 2026-05-05 22:05 | 52.36485 | 13.60827 | 2794 ft | 196 kts | 83° |
| 2026-05-05 22:06 | 52.36626 | 13.63170 | 3090 ft | 218 kts | 84° |
| 2026-05-05 22:06 | 52.36777 | 13.65702 | 3715 ft | 225 kts | 84° |
| 2026-05-05 22:06 | 52.36930 | 13.68267 | 4498 ft | 228 kts | 84° |
| 2026-05-05 22:06 | 52.37089 | 13.70874 | 5263 ft | 232 kts | 84° |
| 2026-05-05 22:07 | 52.37250 | 13.73532 | 6014 ft | 236 kts | 84° |
| 2026-05-05 22:07 | 52.37363 | 13.76222 | 6759 ft | 240 kts | 92° |
| 2026-05-05 22:07 | 52.37067 | 13.78975 | 7260 ft | 257 kts | 106° |
| 2026-05-05 22:07 | 52.36544 | 13.81896 | 7682 ft | 275 kts | 106° |
| 2026-05-05 22:08 | 52.35990 | 13.84930 | 8399 ft | 281 kts | 106° |
| 2026-05-05 22:08 | 52.35425 | 13.88023 | 9160 ft | 286 kts | 106° |
| 2026-05-05 22:08 | 52.34852 | 13.91175 | 9926 ft | 290 kts | 106° |
| 2026-05-05 22:08 | 52.34273 | 13.94359 | 10683 ft | 294 kts | 107° |
| 2026-05-05 22:09 | 52.33687 | 13.97578 | 11437 ft | 297 kts | 107° |
| 2026-05-05 22:09 | 52.33103 | 14.00789 | 12173 ft | 300 kts | 107° |
| 2026-05-05 22:09 | 52.32383 | 14.04006 | 12850 ft | 303 kts | 119° |
| 2026-05-05 22:09 | 52.31121 | 14.06773 | 13495 ft | 306 kts | 137° |
| 2026-05-05 22:10 | 52.29365 | 14.08806 | 13882 ft | 319 kts | 156° |
| 2026-05-05 22:10 | 52.27176 | 14.09825 | 14023 ft | 339 kts | 173° |
| 2026-05-05 22:10 | 52.24758 | 14.10285 | 14153 ft | 359 kts | 174° |
| 2026-05-05 22:10 | 52.22233 | 14.10775 | 14541 ft | 369 kts | 173° |
| 2026-05-05 22:11 | 52.19666 | 14.11290 | 15109 ft | 374 kts | 173° |
| 2026-05-05 22:11 | 52.17074 | 14.11823 | 15716 ft | 377 kts | 173° |
| 2026-05-05 22:11 | 52.14459 | 14.12367 | 16310 ft | 380 kts | 173° |
| 2026-05-05 22:11 | 52.11826 | 14.12917 | 16886 ft | 383 kts | 173° |
| 2026-05-05 22:12 | 52.09172 | 14.13469 | 17459 ft | 386 kts | 173° |
| 2026-05-05 22:12 | 52.06495 | 14.14022 | 18006 ft | 389 kts | 173° |
| 2026-05-05 22:12 | 52.03792 | 14.14581 | 18571 ft | 392 kts | 173° |
| 2026-05-05 22:12 | 52.01108 | 14.15136 | 19115 ft | 395 kts | 173° |
| 2026-05-05 22:13 | 51.98335 | 14.15708 | 19663 ft | 398 kts | 173° |
| 2026-05-05 22:13 | 51.95619 | 14.16264 | 20182 ft | 400 kts | 174° |
| 2026-05-05 22:13 | 51.92839 | 14.16760 | 20686 ft | 402 kts | 178° |
| 2026-05-05 22:13 | 51.90045 | 14.16584 | 21159 ft | 404 kts | 188° |
| 2026-05-05 22:14 | 51.87302 | 14.15571 | 21619 ft | 405 kts | 199° |
| 2026-05-05 22:14 | 51.84681 | 14.13845 | 22064 ft | 407 kts | 204° |
| 2026-05-05 22:14 | 51.82076 | 14.12020 | 22502 ft | 410 kts | 204° |
| 2026-05-05 22:14 | 51.79445 | 14.10194 | 22935 ft | 412 kts | 203° |
| 2026-05-05 22:15 | 51.76800 | 14.08369 | 23354 ft | 414 kts | 203° |
| 2026-05-05 22:15 | 51.74149 | 14.06546 | 23745 ft | 416 kts | 203° |
| 2026-05-05 22:15 | 51.71473 | 14.04710 | 24135 ft | 418 kts | 203° |
| 2026-05-05 22:15 | 51.68791 | 14.02870 | 24503 ft | 420 kts | 203° |
| 2026-05-05 22:16 | 51.66093 | 14.01020 | 24850 ft | 422 kts | 203° |
| 2026-05-05 22:16 | 51.63389 | 13.99165 | 25198 ft | 424 kts | 203° |
| 2026-05-05 22:16 | 51.60658 | 13.97290 | 25548 ft | 426 kts | 203° |
| 2026-05-05 22:16 | 51.57925 | 13.95419 | 25875 ft | 428 kts | 203° |
| 2026-05-05 22:17 | 51.55183 | 13.93542 | 26197 ft | 430 kts | 203° |
| 2026-05-05 22:17 | 51.52426 | 13.91659 | 26507 ft | 431 kts | 203° |
| 2026-05-05 22:17 | 51.49658 | 13.89767 | 26811 ft | 433 kts | 203° |
| 2026-05-05 22:17 | 51.46879 | 13.87898 | 27089 ft | 435 kts | 200° |
| 2026-05-05 22:18 | 51.43968 | 13.86549 | 27374 ft | 437 kts | 192° |
| 2026-05-05 22:18 | 51.40962 | 13.85677 | 27649 ft | 439 kts | 191° |
| 2026-05-05 22:18 | 51.37960 | 13.84815 | 27785 ft | 438 kts | 191° |
| 2026-05-05 22:18 | 51.35974 | 13.84244 | 27813 ft | 437 kts | 191° |
| 2026-05-05 22:19 | 51.32985 | 13.83386 | 27813 ft | 436 kts | 191° |
| 2026-05-05 22:19 | 51.29996 | 13.82528 | 27813 ft | 436 kts | 191° |
| 2026-05-05 22:19 | 51.27003 | 13.81668 | 27812 ft | 436 kts | 191° |
| 2026-05-05 22:19 | 51.24018 | 13.80810 | 27814 ft | 436 kts | 191° |
| 2026-05-05 22:20 | 51.21044 | 13.79956 | 27813 ft | 436 kts | 191° |
| 2026-05-05 22:20 | 51.18052 | 13.79096 | 27813 ft | 437 kts | 191° |
| 2026-05-05 22:20 | 51.15057 | 13.78236 | 27813 ft | 437 kts | 191° |
| 2026-05-05 22:20 | 51.12065 | 13.77382 | 27813 ft | 437 kts | 191° |
| 2026-05-05 22:21 | 51.09078 | 13.76534 | 27810 ft | 437 kts | 191° |
| 2026-05-05 22:21 | 51.06086 | 13.75685 | 27808 ft | 437 kts | 191° |
| 2026-05-05 22:21 | 51.03092 | 13.74833 | 27805 ft | 437 kts | 191° |
| 2026-05-05 22:21 | 51.00104 | 13.73981 | 27803 ft | 437 kts | 191° |
| 2026-05-05 22:22 | 50.97110 | 13.73125 | 27800 ft | 437 kts | 191° |
| 2026-05-05 22:22 | 50.94119 | 13.72273 | 27797 ft | 437 kts | 191° |
| 2026-05-05 22:22 | 50.91123 | 13.71422 | 27791 ft | 437 kts | 191° |
| 2026-05-05 22:22 | 50.88159 | 13.70393 | 27795 ft | 437 kts | 196° |
| 2026-05-05 22:23 | 50.85274 | 13.69083 | 27792 ft | 438 kts | 197° |
| 2026-05-05 22:23 | 50.82326 | 13.67740 | 27917 ft | 444 kts | 197° |
| 2026-05-05 22:23 | 50.79340 | 13.66382 | 28031 ft | 448 kts | 196° |
| 2026-05-05 22:23 | 50.76327 | 13.65021 | 28175 ft | 452 kts | 196° |
| 2026-05-05 22:24 | 50.73305 | 13.63664 | 28391 ft | 453 kts | 196° |
| 2026-05-05 22:24 | 50.70227 | 13.62531 | 28649 ft | 453 kts | 189° |
| 2026-05-05 22:24 | 50.67117 | 13.61745 | 28927 ft | 452 kts | 189° |
| 2026-05-05 22:24 | 50.64001 | 13.60962 | 29190 ft | 452 kts | 189° |
| 2026-05-05 22:25 | 50.60896 | 13.60182 | 29469 ft | 452 kts | 189° |
| 2026-05-05 22:25 | 50.57791 | 13.59403 | 29765 ft | 451 kts | 189° |
| 2026-05-05 22:25 | 50.54692 | 13.58627 | 30034 ft | 451 kts | 189° |
| 2026-05-05 22:25 | 50.51602 | 13.57848 | 30305 ft | 450 kts | 189° |
| 2026-05-05 22:26 | 50.48517 | 13.57068 | 30580 ft | 449 kts | 189° |
| 2026-05-05 22:26 | 50.45426 | 13.56290 | 30854 ft | 448 kts | 189° |
| 2026-05-05 22:26 | 50.42348 | 13.55516 | 31122 ft | 448 kts | 189° |
| 2026-05-05 22:26 | 50.39277 | 13.54743 | 31387 ft | 447 kts | 189° |
| 2026-05-05 22:27 | 50.36213 | 13.53972 | 31645 ft | 446 kts | 189° |
| 2026-05-05 22:27 | 50.33147 | 13.53204 | 31914 ft | 446 kts | 189° |
| 2026-05-05 22:27 | 50.30127 | 13.52451 | 32170 ft | 445 kts | 189° |
| 2026-05-05 22:27 | 50.27074 | 13.51692 | 32428 ft | 444 kts | 189° |
| 2026-05-05 22:28 | 50.24026 | 13.50931 | 32683 ft | 444 kts | 189° |
| 2026-05-05 22:28 | 50.20975 | 13.50169 | 32809 ft | 443 kts | 189° |
| 2026-05-05 22:28 | 50.17927 | 13.49412 | 32823 ft | 443 kts | 189° |
| 2026-05-05 22:29 | 50.11841 | 13.47912 | 32831 ft | 442 kts | 189° |
| 2026-05-05 22:29 | 50.05763 | 13.46403 | 32999 ft | 443 kts | 189° |
| 2026-05-05 22:29 | 50.02716 | 13.45644 | 33238 ft | 443 kts | 189° |
| 2026-05-05 22:30 | 49.99679 | 13.44893 | 33479 ft | 442 kts | 189° |
| 2026-05-05 22:30 | 49.96640 | 13.44147 | 33713 ft | 442 kts | 189° |
| 2026-05-05 22:30 | 49.93602 | 13.43403 | 33935 ft | 442 kts | 189° |
| 2026-05-05 22:30 | 49.90570 | 13.42660 | 34167 ft | 441 kts | 189° |
| 2026-05-05 22:31 | 49.87541 | 13.41916 | 34398 ft | 441 kts | 189° |
| 2026-05-05 22:31 | 49.84506 | 13.41171 | 34627 ft | 440 kts | 189° |
| 2026-05-05 22:31 | 49.81482 | 13.40435 | 34848 ft | 440 kts | 189° |
| 2026-05-05 22:31 | 49.78456 | 13.39696 | 35045 ft | 440 kts | 189° |
| 2026-05-05 22:32 | 49.75436 | 13.38956 | 35249 ft | 439 kts | 189° |
| 2026-05-05 22:32 | 49.72415 | 13.38215 | 35440 ft | 438 kts | 189° |
| 2026-05-05 22:32 | 49.69411 | 13.37480 | 35624 ft | 438 kts | 189° |
| 2026-05-05 22:32 | 49.66399 | 13.36744 | 35798 ft | 438 kts | 189° |
| 2026-05-05 22:33 | 49.63388 | 13.36016 | 35842 ft | 438 kts | 189° |
| 2026-05-05 22:33 | 49.57408 | 13.34575 | 35841 ft | 437 kts | 189° |
| 2026-05-05 22:34 | 49.51399 | 13.33120 | 35842 ft | 437 kts | 189° |
| 2026-05-05 22:34 | 49.45394 | 13.31665 | 35838 ft | 437 kts | 189° |
| 2026-05-05 22:35 | 49.39383 | 13.30218 | 35842 ft | 437 kts | 189° |
| 2026-05-05 22:35 | 49.33373 | 13.28772 | 35844 ft | 437 kts | 189° |
| 2026-05-05 22:36 | 49.27356 | 13.27332 | 35842 ft | 437 kts | 189° |
| 2026-05-05 22:36 | 49.21556 | 13.24637 | 35848 ft | 436 kts | 206° |
| 2026-05-05 22:37 | 49.16110 | 13.20542 | 35849 ft | 436 kts | 206° |
| 2026-05-05 22:37 | 49.10662 | 13.16460 | 35846 ft | 436 kts | 206° |
| 2026-05-05 22:38 | 49.05215 | 13.12401 | 35850 ft | 436 kts | 206° |
| 2026-05-05 22:38 | 48.99770 | 13.08351 | 35839 ft | 435 kts | 206° |
| 2026-05-05 22:39 | 48.94325 | 13.04309 | 35846 ft | 435 kts | 206° |
| 2026-05-05 22:39 | 48.88914 | 13.00302 | 35844 ft | 435 kts | 206° |
| 2026-05-05 22:40 | 48.83466 | 12.96283 | 35849 ft | 435 kts | 206° |
| 2026-05-05 22:40 | 48.78033 | 12.92284 | 35855 ft | 435 kts | 206° |
| 2026-05-05 22:41 | 48.72740 | 12.87860 | 35854 ft | 434 kts | 217° |
| 2026-05-05 22:41 | 48.68227 | 12.81802 | 35864 ft | 434 kts | 222° |
| 2026-05-05 22:42 | 48.63776 | 12.75626 | 35860 ft | 434 kts | 222° |
| 2026-05-05 22:42 | 48.59314 | 12.69467 | 35864 ft | 434 kts | 222° |
| 2026-05-05 22:43 | 48.54853 | 12.63292 | 35881 ft | 435 kts | 222° |
| 2026-05-05 22:43 | 48.50397 | 12.57118 | 35882 ft | 435 kts | 222° |
| 2026-05-05 22:44 | 48.45932 | 12.50940 | 35587 ft | 435 kts | 222° |
| 2026-05-05 22:44 | 48.43695 | 12.47856 | 35330 ft | 435 kts | 222° |
| 2026-05-05 22:44 | 48.41429 | 12.44827 | 35078 ft | 436 kts | 220° |
| 2026-05-05 22:44 | 48.39157 | 12.41902 | 34841 ft | 436 kts | 220° |
| 2026-05-05 22:45 | 48.36828 | 12.38971 | 34594 ft | 437 kts | 219° |
| 2026-05-05 22:45 | 48.34461 | 12.36016 | 34337 ft | 437 kts | 219° |
| 2026-05-05 22:45 | 48.32148 | 12.33119 | 34087 ft | 438 kts | 220° |
| 2026-05-05 22:45 | 48.29820 | 12.30188 | 33839 ft | 438 kts | 220° |
| 2026-05-05 22:46 | 48.27482 | 12.27233 | 32959 ft | 442 kts | 220° |
| 2026-05-05 22:46 | 48.25117 | 12.24225 | 31787 ft | 450 kts | 220° |
| 2026-05-05 22:46 | 48.22711 | 12.21160 | 30574 ft | 454 kts | 220° |
| 2026-05-05 22:46 | 48.20289 | 12.18084 | 29370 ft | 459 kts | 220° |
| 2026-05-05 22:47 | 48.17840 | 12.14980 | 28140 ft | 462 kts | 220° |
| 2026-05-05 22:47 | 48.15387 | 12.11877 | 27102 ft | 459 kts | 220° |
| 2026-05-05 22:47 | 48.12961 | 12.08821 | 26300 ft | 453 kts | 220° |
| 2026-05-05 22:47 | 48.10563 | 12.05814 | 25500 ft | 448 kts | 220° |
| 2026-05-05 22:48 | 48.08190 | 12.02834 | 24722 ft | 443 kts | 220° |
| 2026-05-05 22:48 | 48.05845 | 11.99886 | 23947 ft | 438 kts | 220° |
| 2026-05-05 22:48 | 48.03523 | 11.96970 | 23206 ft | 434 kts | 220° |
| 2026-05-05 22:48 | 48.01221 | 11.94086 | 22469 ft | 430 kts | 220° |
| 2026-05-05 22:49 | 47.98940 | 11.91234 | 21788 ft | 426 kts | 220° |
| 2026-05-05 22:49 | 47.96677 | 11.88411 | 21130 ft | 421 kts | 220° |
| 2026-05-05 22:49 | 47.94470 | 11.85661 | 20500 ft | 416 kts | 220° |
| 2026-05-05 22:49 | 47.92214 | 11.82998 | 19893 ft | 412 kts | 214° |
| 2026-05-05 22:50 | 47.89695 | 11.81038 | 19316 ft | 407 kts | 201° |
| 2026-05-05 22:50 | 47.86973 | 11.79950 | 18750 ft | 404 kts | 189° |
| 2026-05-05 22:50 | 47.84181 | 11.79666 | 18212 ft | 400 kts | 183° |
| 2026-05-05 22:50 | 47.81407 | 11.79519 | 17673 ft | 396 kts | 183° |
| 2026-05-05 22:51 | 47.78667 | 11.79371 | 17156 ft | 393 kts | 183° |
| 2026-05-05 22:51 | 47.75948 | 11.79221 | 16594 ft | 389 kts | 184° |
| 2026-05-05 22:51 | 47.73250 | 11.79070 | 16045 ft | 386 kts | 183° |
| 2026-05-05 22:51 | 47.70569 | 11.79201 | 15486 ft | 385 kts | 174° |
| 2026-05-05 22:52 | 47.67967 | 11.80103 | 14917 ft | 386 kts | 162° |
| 2026-05-05 22:52 | 47.65463 | 11.81501 | 14324 ft | 383 kts | 161° |
| 2026-05-05 22:52 | 47.62983 | 11.82899 | 13740 ft | 381 kts | 161° |
| 2026-05-05 22:52 | 47.60512 | 11.84289 | 13137 ft | 379 kts | 161° |
| 2026-05-05 22:53 | 47.58052 | 11.85669 | 12529 ft | 377 kts | 161° |
| 2026-05-05 22:53 | 47.55608 | 11.87034 | 11910 ft | 374 kts | 161° |
| 2026-05-05 22:53 | 47.53179 | 11.88388 | 11286 ft | 371 kts | 161° |
| 2026-05-05 22:53 | 47.50768 | 11.89728 | 10714 ft | 367 kts | 161° |
| 2026-05-05 22:54 | 47.48428 | 11.91031 | 10564 ft | 351 kts | 161° |
| 2026-05-05 22:54 | 47.46141 | 11.92002 | 10440 ft | 333 kts | 176° |
| 2026-05-05 22:54 | 47.43910 | 11.91805 | 10368 ft | 314 kts | 196° |
| 2026-05-05 22:54 | 47.41976 | 11.90550 | 10296 ft | 297 kts | 216° |
| 2026-05-05 22:55 | 47.40512 | 11.88530 | 10199 ft | 283 kts | 234° |
| 2026-05-05 22:55 | 47.39424 | 11.86225 | 10078 ft | 272 kts | 236° |
| 2026-05-05 22:55 | 47.38360 | 11.83960 | 9814 ft | 268 kts | 236° |
| 2026-05-05 22:55 | 47.37429 | 11.81610 | 9551 ft | 261 kts | 248° |
| 2026-05-05 22:56 | 47.36767 | 11.79203 | 9519 ft | 246 kts | 249° |
| 2026-05-05 22:56 | 47.36124 | 11.76889 | 9386 ft | 244 kts | 249° |
| 2026-05-05 22:56 | 47.35462 | 11.74540 | 8685 ft | 257 kts | 248° |
| 2026-05-05 22:56 | 47.34733 | 11.72029 | 7592 ft | 275 kts | 248° |
| 2026-05-05 22:57 | 47.34013 | 11.69482 | 7352 ft | 257 kts | 249° |
| 2026-05-05 22:57 | 47.33368 | 11.67145 | 7277 ft | 240 kts | 249° |
| 2026-05-05 22:57 | 47.32735 | 11.64872 | 6801 ft | 237 kts | 249° |
| 2026-05-05 22:57 | 47.32113 | 11.62632 | 6251 ft | 235 kts | 249° |
| 2026-05-05 22:58 | 47.31489 | 11.60427 | 5782 ft | 230 kts | 248° |
| 2026-05-05 22:58 | 47.30862 | 11.58278 | 5388 ft | 228 kts | 248° |
| 2026-05-05 22:58 | 47.30238 | 11.56175 | 5081 ft | 219 kts | 246° |
| 2026-05-05 22:58 | 47.29650 | 11.54171 | 4807 ft | 207 kts | 245° |
| 2026-05-05 22:59 | 47.29111 | 11.52298 | 4464 ft | 192 kts | 247° |
| 2026-05-05 22:59 | 47.28604 | 11.50512 | 4094 ft | 186 kts | 248° |
| 2026-05-05 22:59 | 47.28125 | 11.48828 | 3844 ft | 171 kts | 249° |
| 2026-05-05 22:59 | 47.27709 | 11.47280 | 3616 ft | 155 kts | 252° |
| 2026-05-05 23:00 | 47.27150 | 11.44330 | 3190 ft | 147 kts | 258° |
| 2026-05-05 23:00 | 47.26957 | 11.42861 | 2980 ft | 149 kts | 261° |
| 2026-05-05 23:00 | 47.26771 | 11.41346 | 2771 ft | 148 kts | 261° |
| 2026-05-05 23:01 | 47.26611 | 11.39852 | 2586 ft | 148 kts | 261° |
| 2026-05-05 23:01 | 47.26452 | 11.38377 | 2343 ft | 147 kts | 262° |
| 2026-05-05 23:01 | 47.26288 | 11.36874 | 2129 ft | 147 kts | 262° |
| 2026-05-05 23:01 | 47.26129 | 11.35415 | 1917 ft | 142 kts | 261° |
| 2026-05-05 23:02 | 47.25996 | 11.34135 | 1894 ft | 97 kts | 261° |
| 2026-05-05 23:02 | 47.25939 | 11.33709 | 1901 ft | 12 kts | 225° |
| 2026-05-05 23:02 | 47.25881 | 11.33739 | 1894 ft | 9 kts | 130° |
| 2026-05-05 23:02 | 47.25846 | 11.33807 | 1900 ft | 7 kts | 126° |
| 2026-05-05 23:03 | 47.25818 | 11.33862 | 1892 ft | 6 kts | 126° |
| 2026-05-05 23:03 | 47.25789 | 11.33930 | 1893 ft | 10 kts | 116° |
| 2026-05-05 23:03 | 47.25771 | 11.34052 | 1904 ft | 13 kts | 88° |
| 2026-05-05 23:03 | 47.25784 | 11.34184 | 1894 ft | 14 kts | 81° |
| 2026-05-05 23:04 | 47.25802 | 11.34346 | 1900 ft | 17 kts | 81° |
| 2026-05-05 23:04 | 47.25814 | 11.34463 | 1900 ft | 18 kts | 80° |
| 2026-05-05 23:04 | 47.25835 | 11.34650 | 1899 ft | 19 kts | 81° |
| 2026-05-05 23:04 | 47.25849 | 11.34783 | 1902 ft | 7 kts | 81° |
| 2026-05-05 23:05 | 47.25857 | 11.34853 | 1904 ft | 8 kts | 81° |
| 2026-05-05 23:05 | 47.25868 | 11.34955 | 1897 ft | 12 kts | 81° |
| 2026-05-05 23:05 | 47.25883 | 11.35089 | 1902 ft | 14 kts | 81° |
| 2026-05-05 23:05 | 47.25892 | 11.35199 | 1893 ft | 7 kts | 96° |
| 2026-05-05 23:06 | 47.25860 | 11.35231 | 1896 ft | 5 kts | 164° |
| 2026-05-05 23:06 | 47.25842 | 11.35235 | 1897 ft | 0 kts | 171° |